Nanjing Lukou Airport
ZSNJ : now visible

Airfield :











YOU CAN JOIN US ON...

 
LOGIN :

Register | Disclaimer

   EN    FR    IT 

 









Legend :    VFR   Marginal VFR   IFR   Intensive IFR   Very Intensive IFR
Visi :
Ceiling :
>= 8 km
>= 3000ft
5 to 8 km
1000 to 3000 ft
1500m to 5 km
500 to 1000 ft
800 to 1500m
200 to 500 ft
< 800m
< 200 ft
Symbols :   Thunderstorms  Fog  Heavy snow  Heavy precipitations  Wind > 20 kt






- Airport Elevation : 49 ft
- IATA code : NKG


ZSNJ - Nanjing Lukou

CURRENT METAR :
  • 232000Z 00000MPS 4000 BR NSC 12/11 Q1019 NOSIG

EXPIRED METARs :
  • 231900Z 24002MPS 6000 NSC 11/11 Q1019 NOSIG
  • 231800Z 25001MPS 7000 NSC 12/12 Q1019 NOSIG

TAF TAF ZSNJ
Valid from the 23 at 18:00 until the 24 at 18:00 UTC


231501Z 2318/2418 02003MPS 3000 HZ NSC TX25/2406Z TN12/2321Z



MET'MAP, your aeronautical weather chart ! - Copyright ORBIFLY December 2007 - Disclaimer

ORBIFLY MET'MAP TEAM :

Programming & Development : Alexandra Zaïnal
Concept & Development : Baudouin d'Aumeries
Co-Development & Prog : Marc-Olivier Méhu
Technical & hardware support : Manuel Goepfert

Contact : metmap@orbifly.com




SOURCES & CREDITS :

   NOAA       Earth
Advisory